createdAt,value
2018-09-01T00:02:07.894Z,37.00
2018-09-01T00:04:36.313Z,34.47
2018-09-01T00:07:04.619Z,37.80
2018-09-01T00:09:35.153Z,38.30
2018-09-01T00:12:04.783Z,34.13
2018-09-01T00:14:33.191Z,35.20
2018-09-01T00:17:01.734Z,34.53
2018-09-01T00:19:30.104Z,35.23
2018-09-01T00:21:58.541Z,39.47
2018-09-01T00:24:26.955Z,35.83
2018-09-01T00:26:55.282Z,36.57
2018-09-01T00:29:23.681Z,34.03
2018-09-01T00:31:52.107Z,34.87
2018-09-01T00:34:20.471Z,36.30
2018-09-01T00:36:48.881Z,33.43
2018-09-01T00:39:17.224Z,36.90
2018-09-01T00:41:45.715Z,35.77
2018-09-01T00:44:14.138Z,36.03
2018-09-01T00:46:42.507Z,37.73
2018-09-01T00:49:10.931Z,37.83
2018-09-01T00:51:39.295Z,38.07
2018-09-01T00:54:07.757Z,40.03
2018-09-01T00:56:36.167Z,37.23
2018-09-01T00:59:04.550Z,38.17
2018-09-01T01:01:32.911Z,39.70
2018-09-01T01:04:01.319Z,36.03
2018-09-01T01:06:29.636Z,36.63
2018-09-01T01:08:58.045Z,37.50
2018-09-01T01:11:26.448Z,36.67
2018-09-01T01:13:54.794Z,37.67
2018-09-01T01:16:23.167Z,38.03
2018-09-01T01:18:51.500Z,37.43
2018-09-01T01:21:19.881Z,35.97
2018-09-01T01:23:48.291Z,36.47
2018-09-01T01:26:16.678Z,39.87
2018-09-01T01:28:45.048Z,34.57
2018-09-01T01:31:13.418Z,37.73
2018-09-01T01:33:41.736Z,37.23
2018-09-01T01:36:10.171Z,35.40
2018-09-01T01:38:38.485Z,35.77
2018-09-01T01:41:06.978Z,36.17
2018-09-01T01:43:35.379Z,34.53
2018-09-01T01:46:03.834Z,32.23
2018-09-01T01:48:32.181Z,34.57
2018-09-01T01:51:00.496Z,36.03
2018-09-01T01:53:28.896Z,34.57
2018-09-01T01:55:57.228Z,36.40
2018-09-01T01:58:25.604Z,36.17
2018-09-01T02:00:53.963Z,34.60
2018-09-01T02:03:22.310Z,34.33
2018-09-01T02:05:50.660Z,36.23
2018-09-01T02:08:19.077Z,34.90
2018-09-01T02:10:47.591Z,34.77
2018-09-01T02:13:16.021Z,33.83
2018-09-01T02:15:44.468Z,36.00
2018-09-01T02:18:12.754Z,34.37
2018-09-01T02:20:41.127Z,32.17
2018-09-01T02:23:09.494Z,33.70
2018-09-01T02:25:37.874Z,34.03
2018-09-01T02:28:06.416Z,36.10
2018-09-01T02:30:34.871Z,31.47
2018-09-01T02:33:03.267Z,32.60
2018-09-01T02:35:31.669Z,34.23
2018-09-01T02:38:00.084Z,31.70
2018-09-01T02:40:28.431Z,30.10
2018-09-01T02:42:56.779Z,31.30
2018-09-01T02:45:25.221Z,32.90
2018-09-01T02:47:53.592Z,26.83
2018-09-01T02:50:21.901Z,28.53
2018-09-01T02:52:50.208Z,31.70
2018-09-01T02:55:18.611Z,31.40
2018-09-01T02:57:47.022Z,33.17
2018-09-01T03:00:20.796Z,31.70
2018-09-01T03:02:49.188Z,33.27
2018-09-01T03:05:17.527Z,33.53
2018-09-01T03:07:45.915Z,31.47
2018-09-01T03:10:14.268Z,30.70
2018-09-01T03:12:42.731Z,33.53
2018-09-01T03:15:11.101Z,34.23
2018-09-01T03:17:39.455Z,34.10
2018-09-01T03:20:07.933Z,35.13
2018-09-01T03:22:36.294Z,34.50
2018-09-01T03:25:04.977Z,32.93
2018-09-01T03:27:33.469Z,34.00
2018-09-01T03:30:01.875Z,32.10
2018-09-01T03:32:30.235Z,34.53
2018-09-01T03:34:58.651Z,32.20
2018-09-01T03:37:27.015Z,32.50
2018-09-01T03:39:55.472Z,30.30
2018-09-01T03:42:23.984Z,33.50
2018-09-01T03:44:52.385Z,29.97
2018-09-01T03:47:20.743Z,29.73
2018-09-01T03:49:49.217Z,31.43
2018-09-01T03:52:17.550Z,28.17
2018-09-01T03:54:45.905Z,30.37
2018-09-01T03:57:14.288Z,30.13
2018-09-01T03:59:42.581Z,31.37
2018-09-01T04:02:10.965Z,30.57
2018-09-01T04:04:39.349Z,32.80
2018-09-01T04:07:07.705Z,33.03
2018-09-01T04:09:36.103Z,32.03
2018-09-01T04:12:04.401Z,29.50
2018-09-01T04:14:32.776Z,31.50
2018-09-01T04:17:01.335Z,30.23
2018-09-01T04:19:29.705Z,30.03
2018-09-01T04:21:58.149Z,28.07
2018-09-01T04:24:26.550Z,30.20
2018-09-01T04:26:54.975Z,28.83
2018-09-01T04:29:23.356Z,28.27
2018-09-01T04:31:51.795Z,29.33
2018-09-01T04:34:20.144Z,29.50
2018-09-01T04:36:48.531Z,29.20
2018-09-01T04:39:16.895Z,30.10
2018-09-01T04:41:45.248Z,29.87
2018-09-01T04:44:13.587Z,31.10
2018-09-01T04:46:42.004Z,32.40
2018-09-01T04:49:10.442Z,31.80
2018-09-01T04:51:38.757Z,32.50
2018-09-01T04:54:07.086Z,33.07
2018-09-01T04:56:35.497Z,34.87
2018-09-01T04:59:03.953Z,33.77
2018-09-01T05:01:32.385Z,31.00
2018-09-01T05:04:00.876Z,31.57
2018-09-01T05:06:29.251Z,31.77
2018-09-01T05:08:57.582Z,31.30
2018-09-01T05:11:26.009Z,31.07
2018-09-01T05:13:54.384Z,32.27
2018-09-01T05:16:22.854Z,30.97
2018-09-01T05:18:51.587Z,30.33
2018-09-01T05:21:19.931Z,29.47
2018-09-01T05:23:48.338Z,29.50
2018-09-01T05:26:16.804Z,29.43
2018-09-01T05:28:45.249Z,30.73
2018-09-01T05:31:13.656Z,28.60
2018-09-01T05:33:42.082Z,28.97
2018-09-01T05:36:10.498Z,30.60
2018-09-01T05:38:39.038Z,29.07
2018-09-01T05:41:07.369Z,30.27
2018-09-01T05:43:35.854Z,30.30
2018-09-01T05:46:04.190Z,27.57
2018-09-01T05:48:32.597Z,27.27
2018-09-01T05:51:00.935Z,27.00
2018-09-01T05:53:29.267Z,28.67
2018-09-01T05:55:57.673Z,30.27
2018-09-01T05:58:26.099Z,27.97
2018-09-01T06:00:54.563Z,28.03
2018-09-01T06:03:22.975Z,28.33
2018-09-01T06:05:51.386Z,29.40
2018-09-01T06:08:19.841Z,27.10
2018-09-01T06:10:49.160Z,28.27
2018-09-01T06:13:17.583Z,25.33
2018-09-01T06:15:45.909Z,25.83
2018-09-01T06:18:14.325Z,29.00
2018-09-01T06:20:42.802Z,26.30
2018-09-01T06:23:11.279Z,25.33
2018-09-01T06:25:39.646Z,26.40
2018-09-01T06:28:27.863Z,25.87
2018-09-01T06:30:56.683Z,26.63
2018-09-01T06:33:25.201Z,25.50
2018-09-01T06:35:53.604Z,24.00
2018-09-01T06:38:22.044Z,24.03
2018-09-01T06:40:50.556Z,24.50
2018-09-01T06:43:18.935Z,22.93
2018-09-01T06:45:47.286Z,20.67
2018-09-01T06:48:15.833Z,18.80
2018-09-01T06:50:44.213Z,19.27
2018-09-01T06:53:12.567Z,18.67
2018-09-01T06:55:40.979Z,18.20
2018-09-01T06:58:09.358Z,17.03
2018-09-01T07:00:37.674Z,15.30
2018-09-01T07:03:06.320Z,14.60
2018-09-01T07:05:34.786Z,16.37
2018-09-01T07:08:03.224Z,14.27
2018-09-01T07:10:31.626Z,15.13
2018-09-01T07:13:00.017Z,16.13
2018-09-01T07:15:28.470Z,15.20
2018-09-01T07:17:56.789Z,16.60
2018-09-01T07:20:25.169Z,16.17
2018-09-01T07:22:53.538Z,15.50
2018-09-01T07:25:21.874Z,16.80
2018-09-01T07:27:50.245Z,16.10
2018-09-01T07:30:18.685Z,14.20
2018-09-01T07:32:47.013Z,14.23
2018-09-01T07:35:15.405Z,14.80
2018-09-01T07:37:43.873Z,13.30
2018-09-01T07:40:12.204Z,13.10
2018-09-01T07:42:40.632Z,13.90
2018-09-01T07:45:09.099Z,13.57
2018-09-01T07:47:37.433Z,14.70
2018-09-01T07:50:06.057Z,12.70
2018-09-01T07:52:34.367Z,12.30
2018-09-01T07:55:02.703Z,13.67
2018-09-01T07:57:31.023Z,13.10
2018-09-01T07:59:59.387Z,12.63
2018-09-01T08:02:27.775Z,14.00
2018-09-01T08:04:56.183Z,12.20
2018-09-01T08:07:24.590Z,12.70
2018-09-01T08:09:53.014Z,12.60
2018-09-01T08:12:21.461Z,14.80
2018-09-01T08:14:50.386Z,13.37
2018-09-01T08:17:18.805Z,14.10
2018-09-01T08:19:47.195Z,12.97
2018-09-01T08:22:15.623Z,12.40
2018-09-01T08:24:44.029Z,13.90
2018-09-01T08:27:12.432Z,13.00
2018-09-01T08:29:40.812Z,12.03
2018-09-01T08:32:09.140Z,11.50
2018-09-01T08:34:37.547Z,13.20
2018-09-01T08:37:05.959Z,11.33
2018-09-01T08:39:34.384Z,12.13
2018-09-01T08:42:02.849Z,14.23
2018-09-01T08:44:31.225Z,12.97
2018-09-01T08:47:00.243Z,13.27
2018-09-01T08:49:28.563Z,14.77
2018-09-01T08:51:56.948Z,15.37
2018-09-01T08:54:25.319Z,15.17
2018-09-01T08:56:53.894Z,17.80
2018-09-01T08:59:22.326Z,15.87
2018-09-01T09:01:50.675Z,17.43
2018-09-01T09:04:19.141Z,17.47
2018-09-01T09:06:47.517Z,16.07
2018-09-01T09:09:15.918Z,16.60
2018-09-01T09:11:44.366Z,18.33
2018-09-01T09:14:12.830Z,16.53
2018-09-01T09:16:41.279Z,16.40
2018-09-01T09:19:09.581Z,16.97
2018-09-01T09:21:38.282Z,17.97
2018-09-01T09:24:07.113Z,16.40
2018-09-01T09:26:35.555Z,16.70
2018-09-01T09:29:03.884Z,16.40
2018-09-01T09:31:32.251Z,17.00
2018-09-01T09:34:00.779Z,17.10
2018-09-01T09:36:29.146Z,16.33
2018-09-01T09:38:57.533Z,17.33
2018-09-01T09:41:25.877Z,17.00
2018-09-01T09:43:54.266Z,15.57
2018-09-01T09:46:22.611Z,15.90
2018-09-01T09:48:50.918Z,15.53
2018-09-01T09:51:19.277Z,15.67
2018-09-01T09:53:47.631Z,17.83
2018-09-01T09:56:16.021Z,14.90
2018-09-01T09:58:44.437Z,17.33
2018-09-01T10:01:18.403Z,14.67
2018-09-01T10:03:46.783Z,16.60
2018-09-01T10:06:15.154Z,13.80
2018-09-01T10:08:43.922Z,15.80
2018-09-01T10:11:12.506Z,14.63
2018-09-01T10:13:40.875Z,13.83
2018-09-01T10:16:09.336Z,13.83
2018-09-01T10:18:37.639Z,15.00
2018-09-01T10:21:05.977Z,15.57
2018-09-01T10:23:34.415Z,15.90
2018-09-01T10:26:02.783Z,15.67
2018-09-01T10:28:31.139Z,14.63
2018-09-01T10:30:59.567Z,16.13
2018-09-01T10:33:28.028Z,14.10
2018-09-01T10:35:56.343Z,15.00
2018-09-01T10:38:24.663Z,14.27
2018-09-01T10:40:53.161Z,13.00
2018-09-01T10:43:22.169Z,14.57
2018-09-01T10:45:51.643Z,14.03
2018-09-01T10:48:20.153Z,13.50
2018-09-01T10:50:48.711Z,14.97
2018-09-01T10:53:17.267Z,14.93
2018-09-01T10:55:45.790Z,14.63
2018-09-01T10:58:14.281Z,14.50
2018-09-01T11:00:42.704Z,15.40
2018-09-01T11:03:11.074Z,16.23
2018-09-01T11:05:39.573Z,15.43
2018-09-01T11:08:07.868Z,16.03
2018-09-01T11:10:36.223Z,16.43
2018-09-01T11:13:04.605Z,17.43
2018-09-01T11:15:33.313Z,17.87
2018-09-01T11:18:01.950Z,18.00
2018-09-01T11:20:30.451Z,18.37
2018-09-01T11:22:58.847Z,16.57
2018-09-01T11:25:27.204Z,18.20
2018-09-01T11:27:55.550Z,18.40
2018-09-01T11:30:23.873Z,19.80
2018-09-01T11:32:52.263Z,18.23
2018-09-01T11:35:20.851Z,17.40
2018-09-01T11:37:49.421Z,18.23
2018-09-01T11:40:17.853Z,18.03
2018-09-01T11:42:46.334Z,16.83
2018-09-01T11:45:15.004Z,17.93
2018-09-01T11:47:44.325Z,19.40
2018-09-01T11:50:13.198Z,17.83
2018-09-01T11:52:41.887Z,17.80
2018-09-01T11:55:10.316Z,15.60
2018-09-01T11:57:38.757Z,15.67
2018-09-01T12:00:07.437Z,14.17
2018-09-01T12:02:35.852Z,14.57
2018-09-01T12:05:04.591Z,17.63
2018-09-01T12:07:33.021Z,16.70
2018-09-01T12:10:01.539Z,17.70
2018-09-01T12:12:30.089Z,16.70
2018-09-01T12:14:58.628Z,16.83
2018-09-01T12:17:27.068Z,17.10
2018-09-01T12:19:55.609Z,17.73
2018-09-01T12:22:24.100Z,17.57
2018-09-01T12:24:52.574Z,14.90
2018-09-01T12:27:21.021Z,20.67
2018-09-01T12:29:49.424Z,28.03
2018-09-01T12:32:17.790Z,16.47
2018-09-01T12:34:46.235Z,22.93
2018-09-01T12:37:15.553Z,18.10
2018-09-01T12:39:44.001Z,16.07
2018-09-01T12:42:12.483Z,17.23
2018-09-01T12:44:40.817Z,17.77
2018-09-01T12:47:09.261Z,19.67
2018-09-01T12:49:37.703Z,17.50
2018-09-01T12:52:06.125Z,14.40
2018-09-01T12:54:34.675Z,15.83
2018-09-01T12:57:03.219Z,14.43
2018-09-01T12:59:31.602Z,13.80
2018-09-01T13:02:00.155Z,13.30
2018-09-01T13:04:28.732Z,15.20
2018-09-01T13:06:57.299Z,14.00
2018-09-01T13:09:25.651Z,13.33
2018-09-01T13:11:54.020Z,14.47
2018-09-01T13:14:22.434Z,16.07
2018-09-01T13:16:50.777Z,13.93
2018-09-01T13:19:19.156Z,15.17
2018-09-01T13:21:47.497Z,13.13
2018-09-01T13:24:15.855Z,12.37
2018-09-01T13:26:44.264Z,12.60
2018-09-01T13:29:12.779Z,12.60
2018-09-01T13:31:41.390Z,14.10
2018-09-01T13:34:09.788Z,11.93
2018-09-01T13:36:38.184Z,13.17
2018-09-01T13:39:07.405Z,12.70
2018-09-01T13:41:35.831Z,14.90
2018-09-01T13:44:04.266Z,14.23
2018-09-01T13:46:32.621Z,17.40
2018-09-01T13:49:01.435Z,14.33
2018-09-01T13:51:29.863Z,14.53
2018-09-01T13:53:58.236Z,15.37
2018-09-01T13:56:26.681Z,15.97
2018-09-01T13:58:54.990Z,17.60
2018-09-01T14:01:23.467Z,16.40
2018-09-01T14:03:51.827Z,16.53
2018-09-01T14:06:20.245Z,15.03
2018-09-01T14:08:48.627Z,16.20
2018-09-01T14:11:17.304Z,14.50
2018-09-01T14:13:45.687Z,15.10
2018-09-01T14:16:14.264Z,18.63
2018-09-01T14:18:42.722Z,17.37
2018-09-01T14:21:11.124Z,17.30
2018-09-01T14:23:39.511Z,18.00
2018-09-01T14:26:08.056Z,18.30
2018-09-01T14:28:36.441Z,16.00
2018-09-01T14:31:05.037Z,16.40
2018-09-01T14:33:33.394Z,17.20
2018-09-01T14:36:04.076Z,18.30
2018-09-01T14:38:30.403Z,17.07
2018-09-01T14:40:58.861Z,18.20
2018-09-01T14:43:27.308Z,17.33
2018-09-01T14:45:55.736Z,17.10
2018-09-01T14:48:24.121Z,17.73
2018-09-01T14:50:53.422Z,16.67
2018-09-01T14:53:21.846Z,16.40
2018-09-01T14:55:51.109Z,17.53
2018-09-01T14:58:19.493Z,17.03
2018-09-01T15:00:47.882Z,14.27
2018-09-01T15:03:16.293Z,8.97
2018-09-01T15:05:44.598Z,8.33
2018-09-01T15:08:13.663Z,8.57
2018-09-01T15:10:42.037Z,6.47
2018-09-01T15:13:10.441Z,7.37
2018-09-01T15:15:38.799Z,5.70
2018-09-01T15:18:07.194Z,7.83
2018-09-01T15:20:35.740Z,7.17
2018-09-01T15:23:04.490Z,7.30
2018-09-01T15:25:32.883Z,7.87
2018-09-01T15:28:01.389Z,10.63
2018-09-01T15:30:29.902Z,6.87
2018-09-01T15:32:58.239Z,7.90
2018-09-01T15:35:26.782Z,8.57
2018-09-01T15:37:55.114Z,10.43
2018-09-01T15:40:23.485Z,5.90
2018-09-01T15:42:51.886Z,7.40
2018-09-01T15:45:20.248Z,7.80
2018-09-01T15:47:48.755Z,29.57
2018-09-01T15:50:17.226Z,7.37
2018-09-01T15:52:45.569Z,10.40
2018-09-01T15:55:14.020Z,11.20
2018-09-01T15:57:42.919Z,8.07
2018-09-01T16:00:11.416Z,9.40
2018-09-01T16:02:39.757Z,10.60
2018-09-01T16:05:08.121Z,10.40
2018-09-01T16:07:36.663Z,11.93
2018-09-01T16:10:05.143Z,13.93
2018-09-01T16:12:33.500Z,12.60
2018-09-01T16:15:01.910Z,14.20
2018-09-01T16:17:30.357Z,14.57
2018-09-01T16:19:58.768Z,12.67
2018-09-01T16:22:27.179Z,15.13
2018-09-01T16:24:55.544Z,13.83
2018-09-01T16:27:24.021Z,13.50
2018-09-01T16:29:52.368Z,14.13
2018-09-01T16:32:21.200Z,14.50
2018-09-01T16:34:50.333Z,15.57
2018-09-01T16:37:18.960Z,14.37
2018-09-01T16:39:47.395Z,13.00
2018-09-01T16:42:15.833Z,12.60
2018-09-01T16:44:44.273Z,10.80
2018-09-01T16:47:12.680Z,11.97
2018-09-01T16:49:41.059Z,11.10
2018-09-01T16:52:09.453Z,13.27
2018-09-01T16:54:37.723Z,12.03
2018-09-01T16:57:06.360Z,14.20
2018-09-01T16:59:34.705Z,11.63
2018-09-01T17:02:03.168Z,11.70
2018-09-01T17:04:31.506Z,11.70
2018-09-01T17:06:59.860Z,12.50
2018-09-01T17:09:28.238Z,11.80
2018-09-01T17:11:56.821Z,13.67
2018-09-01T17:14:25.203Z,12.13
2018-09-01T17:16:53.581Z,11.43
2018-09-01T17:19:22.035Z,12.73
2018-09-01T17:21:50.390Z,11.13
2018-09-01T17:24:19.012Z,11.07
2018-09-01T17:26:47.362Z,13.63
2018-09-01T17:29:16.966Z,11.87
2018-09-01T17:31:45.388Z,11.40
2018-09-01T17:34:13.750Z,11.40
2018-09-01T17:36:42.139Z,11.57
2018-09-01T17:39:11.949Z,11.93
2018-09-01T17:41:40.623Z,12.77
2018-09-01T17:44:08.999Z,13.60
2018-09-01T17:46:37.338Z,12.07
2018-09-01T17:49:05.996Z,12.80
2018-09-01T17:51:34.407Z,12.73
2018-09-01T17:54:03.116Z,13.67
2018-09-01T17:56:31.418Z,14.00
2018-09-01T17:58:59.833Z,13.80
2018-09-01T18:01:28.563Z,14.00
2018-09-01T18:03:56.937Z,15.13
2018-09-01T18:06:25.610Z,16.57
2018-09-01T18:08:53.997Z,15.87
2018-09-01T18:11:22.441Z,16.10
2018-09-01T18:13:50.923Z,16.73
2018-09-01T18:16:19.414Z,16.70
2018-09-01T18:18:47.670Z,18.30
2018-09-01T18:21:16.177Z,18.50
2018-09-01T18:23:44.525Z,20.20
2018-09-01T18:26:13.486Z,20.00
2018-09-01T18:28:41.949Z,18.93
2018-09-01T18:31:10.313Z,20.17
2018-09-01T18:33:38.597Z,19.87
2018-09-01T18:36:06.950Z,18.90
2018-09-01T18:38:35.811Z,18.93
2018-09-01T18:41:05.791Z,20.80
2018-09-01T18:43:34.139Z,20.67
2018-09-01T18:46:02.619Z,21.17
2018-09-01T18:48:31.102Z,20.67
2018-09-01T18:50:59.512Z,24.70
2018-09-01T18:53:27.966Z,20.30
2018-09-01T18:55:56.417Z,22.37
2018-09-01T18:58:24.786Z,22.57
2018-09-01T19:00:53.206Z,24.50
2018-09-01T19:03:21.793Z,21.80
2018-09-01T19:05:50.212Z,22.43
2018-09-01T19:08:18.687Z,23.23
2018-09-01T19:10:47.416Z,21.80
2018-09-01T19:13:16.275Z,23.20
2018-09-01T19:15:44.687Z,22.50
2018-09-01T19:18:13.177Z,21.63
2018-09-01T19:20:41.715Z,22.50
2018-09-01T19:23:10.048Z,21.70
2018-09-01T19:25:38.767Z,19.97
2018-09-01T19:28:07.355Z,19.53
2018-09-01T19:30:37.391Z,19.60
2018-09-01T19:33:06.318Z,20.23
2018-09-01T19:35:34.933Z,17.73
2018-09-01T19:38:03.457Z,18.50
2018-09-01T19:40:31.939Z,17.90
2018-09-01T19:43:00.311Z,19.30
2018-09-01T19:45:28.854Z,19.00
2018-09-01T19:47:57.049Z,18.17
2018-09-01T19:50:25.444Z,20.20
2018-09-01T19:52:53.849Z,18.10
2018-09-01T19:55:22.273Z,19.97
2018-09-01T19:57:50.670Z,18.90
2018-09-01T20:00:19.093Z,19.30
2018-09-01T20:02:47.593Z,17.17
2018-09-01T20:05:16.059Z,17.77
2018-09-01T20:07:44.443Z,18.10
2018-09-01T20:10:12.862Z,17.67
2018-09-01T20:12:41.234Z,20.00
2018-09-01T20:15:09.774Z,18.27
2018-09-01T20:17:38.195Z,19.83
2018-09-01T20:20:07.393Z,17.57
2018-09-01T20:22:35.764Z,19.93
2018-09-01T20:25:04.243Z,19.73
2018-09-01T20:27:32.597Z,20.30
2018-09-01T20:30:00.991Z,19.73
2018-09-01T20:32:29.445Z,19.83
2018-09-01T20:35:03.079Z,19.27
2018-09-01T20:37:31.453Z,18.57
2018-09-01T20:39:59.860Z,20.27
2018-09-01T20:42:28.290Z,21.57
2018-09-01T20:44:56.791Z,20.87
2018-09-01T20:47:25.187Z,19.77
2018-09-01T20:49:53.517Z,21.00
2018-09-01T20:52:21.874Z,23.50
2018-09-01T20:54:50.196Z,22.47
2018-09-01T20:57:18.520Z,22.57
2018-09-01T20:59:46.959Z,19.83
2018-09-01T21:02:15.299Z,22.47
2018-09-01T21:04:43.702Z,21.90
2018-09-01T21:07:12.117Z,21.80
2018-09-01T21:09:40.526Z,21.47
2018-09-01T21:12:08.844Z,23.50
2018-09-01T21:14:37.199Z,22.93
2018-09-01T21:17:05.905Z,21.47
2018-09-01T21:19:34.304Z,21.77
2018-09-01T21:22:02.650Z,23.37
2018-09-01T21:24:31.040Z,23.30
2018-09-01T21:26:59.508Z,24.37
2018-09-01T21:29:27.890Z,23.73
2018-09-01T21:31:56.188Z,25.37
2018-09-01T21:34:24.544Z,25.33
2018-09-01T21:36:52.947Z,24.87
2018-09-01T21:39:21.340Z,25.43
2018-09-01T21:41:49.820Z,22.10
2018-09-01T21:44:18.194Z,23.97
2018-09-01T21:46:46.522Z,24.80
2018-09-01T21:49:14.854Z,24.33
2018-09-01T21:51:43.301Z,23.60
2018-09-01T21:54:11.639Z,25.10
2018-09-01T21:56:40.027Z,23.37
2018-09-01T21:59:08.389Z,24.60
2018-09-01T22:01:37.145Z,23.90
2018-09-01T22:04:05.679Z,24.17
2018-09-01T22:06:34.058Z,24.10
2018-09-01T22:09:02.532Z,23.27
2018-09-01T22:11:30.892Z,23.17
2018-09-01T22:13:59.465Z,22.10
2018-09-01T22:16:27.941Z,23.47
2018-09-01T22:18:56.319Z,21.10
2018-09-01T22:21:24.721Z,23.13
2018-09-01T22:23:53.065Z,24.67
2018-09-01T22:26:21.337Z,23.50
2018-09-01T22:28:49.791Z,23.50
2018-09-01T22:31:18.140Z,26.07
2018-09-01T22:33:46.505Z,24.27
2018-09-01T22:36:14.889Z,22.97
2018-09-01T22:38:43.317Z,21.97
2018-09-01T22:41:11.718Z,22.90
2018-09-01T22:43:40.154Z,22.13
2018-09-01T22:46:08.540Z,20.20
2018-09-01T22:48:36.907Z,20.50
2018-09-01T22:51:05.305Z,19.87
2018-09-01T22:53:33.682Z,19.80
2018-09-01T22:56:02.078Z,18.50
2018-09-01T22:58:30.447Z,19.10
2018-09-01T23:00:58.823Z,19.97
2018-09-01T23:03:27.204Z,18.60
2018-09-01T23:05:55.585Z,17.73
2018-09-01T23:08:23.970Z,17.40
2018-09-01T23:10:52.266Z,19.40
2018-09-01T23:13:20.639Z,19.50
2018-09-01T23:15:49.047Z,21.33
2018-09-01T23:18:17.403Z,19.80
2018-09-01T23:20:45.785Z,19.20
2018-09-01T23:23:14.133Z,20.87
2018-09-01T23:25:42.473Z,20.83
2018-09-01T23:28:10.891Z,20.30
2018-09-01T23:30:39.277Z,20.83
2018-09-01T23:33:07.590Z,22.10
2018-09-01T23:35:36.035Z,23.10
2018-09-01T23:38:04.526Z,18.97
2018-09-01T23:40:32.825Z,19.17
2018-09-01T23:43:01.264Z,18.97
2018-09-01T23:45:29.657Z,18.97
2018-09-01T23:47:58.044Z,18.60
2018-09-01T23:50:26.375Z,18.83
2018-09-01T23:52:54.748Z,17.90
2018-09-01T23:55:23.124Z,16.50
2018-09-01T23:57:51.545Z,18.43
